Aviation Digital Data Service (ADDS)

Output produced by METARs form (1121 UTC 26 May 2017)
found at http://bcaws.aviationweather.gov/adds/metars/
 
METAR text: KSQL 261110Z AUTO 22004KT 10SM OVC029 13/09 A2988 RMK AO2
Conditions at: KSQL (SAN CARLOS AIRPO, CA, US) observed 1110 UTC 26 May 2017
Temperature: 13.0°C (55°F)
Dewpoint: 9.0°C (48°F) [RH = 77%]
Pressure (altimeter): 29.88 inches Hg (1011.9 mb)
Winds: from the SW (220 degrees) at 5 MPH (4 knots; 2.1 m/s)
Visibility: 10 or more miles (16+ km)
Ceiling: 2900 feet AGL
Clouds: overcast cloud deck at 2900 feet AGL
Weather: automated observation with no human augmentation;
there may or may not be significant weather present at this time